This is the latest recevied weather packets stored in our database for station/object NW6UP. If no packets are shown the sender has not sent any weather packets the latest 10 day(s).
| Time | Temp. | Humidity | Pressure | Rain* | Wind** | Luminosity | Snow |
|---|---|---|---|---|---|---|---|
| 1777248860 | 18.89° C | 44% | 1012.5 hPa | 0 mm | - | - | - |
| 1777247660 | 19.44° C | 41% | 0 hPa | 0 mm | - | - | - |
| 1777246460 | 19.44° C | 38% | 1012.5 hPa | 0 mm | - | - | - |
| 1777245260 | 20.56° C | 37% | 0 hPa | 0 mm | - | - | - |
| 1777242860 | 18.89° C | 42% | 1012.5 hPa | 0 mm | - | - | - |
| 1777241662 | 19.44° C | 41% | 0 hPa | 0 mm | - | - | - |
| 1777240461 | 19.44° C | 42% | 1012.5 hPa | 0 mm | - | - | - |
| 1777239260 | 18.33° C | 43% | 1012.6 hPa | 0 mm | - | - | - |
| 1777236860 | 17.78° C | 43% | 1012.8 hPa | 0 mm | - | - | - |
| 1777235661 | 17.78° C | 44% | 0 hPa | 0 mm | - | - | - |
| 1777232061 | 17.78° C | 43% | 0 hPa | 0 mm | - | - | - |
| 1777230860 | 16.67° C | 53% | 1012.7 hPa | 0 mm | - | - | - |
| 1777229661 | 16.67° C | 52% | 1012.3 hPa | 0 mm | - | - | - |
| 1777227260 | 15.56° C | 63% | 1012.3 hPa | 0 mm | - | - | - |
| 1777226060 | 15° C | 68% | 0 hPa | 0 mm | - | - | - |
| 1777224860 | 14.44° C | 76% | 0 hPa | 0 mm | - | - | - |
| 1777223660 | 13.33° C | 81% | 0 hPa | 0 mm | - | - | - |
| 1777222700 | 12.78° C | 83% | 0 hPa | 0 mm | - | - | - |
| 1777222220 | 12.78° C | 84% | 0 hPa | 0 mm | - | - | - |
| 1777221981 | 12.78° C | 84% | 0 hPa | 0 mm | - | - | - |
| 1777219986 | 12.22° C | 87% | 0 hPa | 0 mm | - | - | - |
| 1777219507 | 12.22° C | 88% | 0 hPa | 0 mm | - | - | - |
| 1777219266 | -17.78° C | 100% | 0 hPa | 0 mm | - | - | - |
| 1777219124 | -17.78° C | 100% | 0 hPa | 0 mm | - | - | - |
| 1777218644 | -17.78° C | 100% | 0 hPa | 0 mm | - | - | - |
* Rain latest hour (hover to see other rain measurements)
** Current wind speed in m/s (hover to see current wind gust speed)